createdAt,value
2022-07-30T00:00:30.734Z,1.90
2022-07-30T00:01:30.909Z,2.00
2022-07-30T00:02:31.071Z,2.40
2022-07-30T00:03:31.312Z,1.90
2022-07-30T00:04:31.475Z,2.00
2022-07-30T00:05:31.693Z,1.90
2022-07-30T00:06:31.851Z,2.00
2022-07-30T00:07:32.018Z,1.90
2022-07-30T00:08:32.188Z,2.20
2022-07-30T00:09:34.465Z,2.10
2022-07-30T00:10:32.541Z,2.00
2022-07-30T00:11:32.724Z,1.80
2022-07-30T00:12:32.894Z,2.10
2022-07-30T00:13:33.070Z,2.00
2022-07-30T00:14:33.255Z,2.00
2022-07-30T00:15:33.440Z,1.90
2022-07-30T00:16:33.646Z,2.10
2022-07-30T00:17:33.803Z,1.90
2022-07-30T00:18:33.972Z,1.80
2022-07-30T00:19:34.204Z,1.90
2022-07-30T00:20:34.303Z,2.10
2022-07-30T00:21:38.443Z,1.90
2022-07-30T00:22:34.628Z,2.00
2022-07-30T00:23:34.838Z,2.00
2022-07-30T00:24:35.029Z,2.00
2022-07-30T00:25:35.200Z,1.90
2022-07-30T00:26:35.368Z,2.10
2022-07-30T00:27:35.538Z,2.00
2022-07-30T00:28:35.706Z,1.70
2022-07-30T00:29:35.917Z,2.10
2022-07-30T00:30:37.088Z,1.90
2022-07-30T00:31:36.232Z,2.00
2022-07-30T00:32:36.415Z,1.90
2022-07-30T00:33:36.593Z,2.00
2022-07-30T00:34:36.813Z,1.90
2022-07-30T00:35:37.002Z,2.00
2022-07-30T00:36:37.514Z,1.90
2022-07-30T00:37:37.345Z,2.00
2022-07-30T00:38:37.517Z,1.80
2022-07-30T00:39:37.732Z,1.90
2022-07-30T00:40:37.903Z,1.80
2022-07-30T00:41:38.075Z,1.80
2022-07-30T00:42:38.248Z,1.70
2022-07-30T00:43:38.416Z,1.90
2022-07-30T00:44:41.037Z,2.00
2022-07-30T00:45:38.845Z,1.80
2022-07-30T00:46:38.897Z,1.90
2022-07-30T00:47:39.072Z,2.10
2022-07-30T00:48:39.279Z,1.80
2022-07-30T00:49:44.142Z,1.90
2022-07-30T00:50:40.582Z,1.90
2022-07-30T00:51:39.754Z,2.20
2022-07-30T00:52:39.916Z,2.00
2022-07-30T00:53:40.083Z,2.40
2022-07-30T00:54:40.266Z,1.70
2022-07-30T00:55:40.430Z,1.80
2022-07-30T00:56:40.599Z,1.80
2022-07-30T00:57:40.789Z,2.00
2022-07-30T00:58:40.980Z,2.10
2022-07-30T00:59:41.165Z,1.80
2022-07-30T01:00:41.402Z,2.10
2022-07-30T01:01:41.498Z,2.20
2022-07-30T01:02:41.673Z,2.00
2022-07-30T01:03:41.849Z,1.80
2022-07-30T01:04:42.033Z,2.20
2022-07-30T01:05:42.219Z,1.90
2022-07-30T01:06:42.400Z,2.10
2022-07-30T01:07:42.575Z,1.70
2022-07-30T01:08:42.760Z,2.10
2022-07-30T01:09:42.961Z,2.00
2022-07-30T01:10:44.091Z,2.00
2022-07-30T01:11:43.264Z,1.90
2022-07-30T01:12:43.431Z,2.20
2022-07-30T01:13:43.603Z,1.90
2022-07-30T01:14:43.797Z,1.90
2022-07-30T01:15:43.963Z,2.00
2022-07-30T01:16:44.189Z,2.10
2022-07-30T01:17:44.359Z,2.10
2022-07-30T01:18:44.562Z,2.20
2022-07-30T01:19:44.760Z,1.90
2022-07-30T01:20:44.951Z,2.00
2022-07-30T01:21:45.125Z,1.90
2022-07-30T01:22:45.310Z,2.00
2022-07-30T01:23:45.490Z,2.00
2022-07-30T01:24:45.681Z,1.70
2022-07-30T01:25:45.853Z,2.10
2022-07-30T01:26:46.025Z,2.00
2022-07-30T01:27:46.200Z,2.00
2022-07-30T01:28:46.384Z,2.20
2022-07-30T01:29:46.587Z,2.00
2022-07-30T01:30:46.765Z,1.90
2022-07-30T01:31:47.002Z,2.10
2022-07-30T01:32:47.174Z,1.90
2022-07-30T01:33:47.354Z,2.20
2022-07-30T01:34:47.538Z,2.20
2022-07-30T01:35:47.715Z,2.00
2022-07-30T01:36:47.889Z,2.10
2022-07-30T01:37:48.082Z,1.90
2022-07-30T01:38:48.255Z,2.20
2022-07-30T01:39:48.449Z,2.00
2022-07-30T01:40:48.617Z,2.00
2022-07-30T01:41:48.742Z,2.00
2022-07-30T01:42:48.911Z,2.00
2022-07-30T01:43:49.087Z,2.10
2022-07-30T01:44:49.286Z,1.70
2022-07-30T01:45:49.504Z,2.00
2022-07-30T01:46:49.694Z,1.90
2022-07-30T01:47:49.867Z,1.80
2022-07-30T01:48:50.084Z,2.10
2022-07-30T01:49:50.280Z,1.90
2022-07-30T01:50:50.455Z,1.90
2022-07-30T01:51:50.626Z,1.90
2022-07-30T01:52:50.799Z,1.90
2022-07-30T01:53:50.975Z,1.80
2022-07-30T01:54:51.163Z,2.10
2022-07-30T01:55:51.330Z,1.70
2022-07-30T01:56:51.506Z,2.00
2022-07-30T01:57:51.722Z,2.00
2022-07-30T01:58:51.896Z,2.00
2022-07-30T01:59:52.067Z,1.90
2022-07-30T02:00:52.271Z,1.90
2022-07-30T02:01:52.460Z,2.00
2022-07-30T02:02:52.655Z,1.90
2022-07-30T02:03:52.870Z,1.80
2022-07-30T02:04:53.006Z,1.80
2022-07-30T02:05:53.224Z,1.90
2022-07-30T02:06:53.401Z,2.20
2022-07-30T02:07:53.575Z,1.80
2022-07-30T02:08:53.791Z,1.90
2022-07-30T02:09:53.970Z,1.80
2022-07-30T02:10:54.147Z,2.10
2022-07-30T02:11:54.325Z,1.90
2022-07-30T02:12:54.505Z,1.80
2022-07-30T02:13:54.685Z,2.00
2022-07-30T02:14:54.882Z,1.90
2022-07-30T02:15:55.136Z,2.10
2022-07-30T02:16:55.225Z,1.80
2022-07-30T02:17:55.404Z,2.00
2022-07-30T02:18:55.587Z,2.00
2022-07-30T02:19:55.805Z,1.90
2022-07-30T02:20:55.983Z,2.00
2022-07-30T02:21:56.214Z,1.90
2022-07-30T02:22:56.435Z,2.10
2022-07-30T02:23:56.606Z,1.90
2022-07-30T02:24:56.812Z,1.90
2022-07-30T02:25:56.984Z,2.00
2022-07-30T02:26:57.325Z,2.30
2022-07-30T02:27:57.303Z,2.00
2022-07-30T02:28:57.474Z,1.90
2022-07-30T02:29:57.660Z,2.20
2022-07-30T02:30:57.848Z,1.90
2022-07-30T02:31:58.091Z,2.00
2022-07-30T02:32:58.265Z,2.00
2022-07-30T02:33:58.437Z,2.00
2022-07-30T02:34:58.624Z,2.00
2022-07-30T02:35:58.808Z,1.90
2022-07-30T02:36:59.257Z,2.00
2022-07-30T02:37:59.135Z,1.80
2022-07-30T02:38:59.311Z,1.70
2022-07-30T02:39:59.503Z,1.90
2022-07-30T02:40:59.691Z,1.90
2022-07-30T02:41:59.864Z,2.00
2022-07-30T02:43:00.061Z,1.90
2022-07-30T02:44:00.231Z,2.00
2022-07-30T02:45:00.424Z,1.90
2022-07-30T02:46:00.604Z,2.20
2022-07-30T02:47:00.924Z,1.90
2022-07-30T02:48:01.022Z,1.90
2022-07-30T02:49:01.259Z,1.80
2022-07-30T02:50:01.454Z,1.80
2022-07-30T02:51:01.643Z,1.90
2022-07-30T02:52:01.811Z,1.80
2022-07-30T02:53:02.015Z,2.20
2022-07-30T02:54:02.116Z,2.00
2022-07-30T02:55:02.316Z,1.80
2022-07-30T02:56:02.496Z,2.00
2022-07-30T02:57:03.106Z,2.10
2022-07-30T02:58:02.852Z,2.10
2022-07-30T02:59:03.035Z,1.90
2022-07-30T03:00:03.232Z,1.90
2022-07-30T03:01:03.549Z,1.90
2022-07-30T03:02:03.629Z,2.10
2022-07-30T03:03:03.713Z,1.90
2022-07-30T03:04:03.891Z,1.70
2022-07-30T03:05:04.082Z,2.10
2022-07-30T03:06:04.266Z,2.60
2022-07-30T03:07:08.228Z,2.10
2022-07-30T03:08:04.596Z,2.10
2022-07-30T03:09:04.780Z,1.90
2022-07-30T03:10:04.970Z,2.30
2022-07-30T03:11:05.156Z,1.90
2022-07-30T03:12:05.338Z,2.00
2022-07-30T03:13:05.496Z,2.00
2022-07-30T03:14:05.676Z,2.10
2022-07-30T03:15:05.882Z,2.30
2022-07-30T03:16:06.114Z,2.00
2022-07-30T03:17:06.276Z,2.10
2022-07-30T03:18:06.458Z,2.00
2022-07-30T03:19:06.642Z,2.00
2022-07-30T03:20:06.839Z,1.70
2022-07-30T03:21:07.025Z,2.10
2022-07-30T03:22:16.986Z,1.80
2022-07-30T03:23:07.364Z,2.00
2022-07-30T03:24:09.271Z,1.90
2022-07-30T03:25:07.814Z,2.30
2022-07-30T03:26:07.996Z,2.00
2022-07-30T03:27:08.181Z,2.20
2022-07-30T03:28:08.367Z,2.00
2022-07-30T03:29:08.541Z,2.10
2022-07-30T03:30:08.747Z,2.30
2022-07-30T03:31:08.980Z,2.00
2022-07-30T03:32:09.121Z,2.00
2022-07-30T03:33:09.280Z,1.80
2022-07-30T03:34:09.457Z,1.90
2022-07-30T03:35:17.519Z,1.80
2022-07-30T03:36:10.797Z,1.90
2022-07-30T03:37:09.982Z,1.90
2022-07-30T03:38:10.169Z,1.80
2022-07-30T03:39:10.377Z,2.00
2022-07-30T03:40:10.558Z,1.90
2022-07-30T03:41:10.749Z,1.90
2022-07-30T03:42:10.942Z,1.80
2022-07-30T03:43:18.281Z,1.90
2022-07-30T03:44:12.270Z,1.90
2022-07-30T03:45:11.458Z,1.80
2022-07-30T03:46:11.663Z,1.80
2022-07-30T03:47:11.853Z,2.10
2022-07-30T03:48:12.047Z,1.80
2022-07-30T03:49:12.248Z,1.80
2022-07-30T03:50:12.439Z,2.00
2022-07-30T03:51:12.615Z,2.00
2022-07-30T03:52:12.794Z,2.00
2022-07-30T03:53:13.019Z,1.80
2022-07-30T03:54:13.864Z,1.80
2022-07-30T03:55:13.380Z,1.90
2022-07-30T03:56:13.550Z,2.00
2022-07-30T03:57:17.614Z,1.70
2022-07-30T03:58:14.887Z,1.80
2022-07-30T03:59:14.059Z,2.00
2022-07-30T04:00:14.259Z,2.20
2022-07-30T04:01:14.447Z,2.00
2022-07-30T04:02:14.632Z,1.90
2022-07-30T04:03:14.824Z,1.90
2022-07-30T04:04:15.009Z,2.00
2022-07-30T04:05:15.214Z,2.00
2022-07-30T04:06:15.382Z,2.00
2022-07-30T04:07:15.562Z,2.00
2022-07-30T04:08:15.746Z,1.90
2022-07-30T04:09:15.962Z,1.80
2022-07-30T04:10:16.164Z,1.80
2022-07-30T04:11:16.357Z,1.80
2022-07-30T04:12:16.538Z,1.80
2022-07-30T04:13:16.722Z,1.80
2022-07-30T04:14:16.911Z,2.00
2022-07-30T04:16:05.123Z,2.00
2022-07-30T04:16:40.941Z,1.80
2022-07-30T04:17:18.627Z,1.90
2022-07-30T04:18:17.715Z,2.10
2022-07-30T04:19:17.902Z,1.80
2022-07-30T04:20:18.253Z,1.80
2022-07-30T04:21:18.281Z,2.50
2022-07-30T04:22:18.477Z,2.00
2022-07-30T04:23:18.657Z,1.80
2022-07-30T04:24:18.841Z,1.90
2022-07-30T04:25:22.460Z,1.90
2022-07-30T04:26:20.190Z,1.80
2022-07-30T04:27:19.376Z,1.80
2022-07-30T04:28:19.571Z,1.70
2022-07-30T04:29:24.130Z,1.80
2022-07-30T04:30:20.902Z,1.80
2022-07-30T04:31:20.150Z,2.00
2022-07-30T04:32:20.316Z,1.60
2022-07-30T04:33:20.500Z,1.80
2022-07-30T04:34:20.681Z,1.70
2022-07-30T04:35:49.904Z,1.70
2022-07-30T04:36:21.982Z,1.50
2022-07-30T04:37:21.159Z,2.10
2022-07-30T04:38:21.345Z,1.60
2022-07-30T04:39:21.537Z,1.60
2022-07-30T04:40:21.715Z,1.60
2022-07-30T04:41:21.895Z,1.70
2022-07-30T04:42:22.079Z,1.70
2022-07-30T04:43:22.273Z,1.60
2022-07-30T04:44:22.449Z,1.70
2022-07-30T04:45:22.626Z,1.50
2022-07-30T04:46:24.698Z,1.70
2022-07-30T04:47:22.994Z,1.70
2022-07-30T04:48:23.165Z,1.60
2022-07-30T04:49:23.414Z,1.60
2022-07-30T04:50:23.575Z,1.70
2022-07-30T04:51:23.789Z,1.70
2022-07-30T04:52:23.974Z,1.60
2022-07-30T04:53:27.138Z,1.60
2022-07-30T04:54:24.302Z,1.40
2022-07-30T04:55:24.467Z,1.60
2022-07-30T04:56:24.659Z,1.50
2022-07-30T04:57:24.839Z,1.50
2022-07-30T04:58:25.009Z,1.60
2022-07-30T04:59:25.336Z,1.50
2022-07-30T05:00:25.329Z,1.60
2022-07-30T05:01:33.914Z,1.70
2022-07-30T05:02:26.655Z,1.60
2022-07-30T05:03:25.827Z,1.40
2022-07-30T05:04:26.037Z,1.50
2022-07-30T05:05:26.356Z,1.60
2022-07-30T05:06:26.413Z,1.60
2022-07-30T05:07:26.595Z,2.10
2022-07-30T05:08:26.782Z,1.70
2022-07-30T05:09:26.984Z,1.70
2022-07-30T05:10:27.153Z,1.50
2022-07-30T05:11:27.343Z,1.50
2022-07-30T05:12:27.523Z,1.60
2022-07-30T05:13:34.765Z,1.70
2022-07-30T05:14:28.840Z,1.90
2022-07-30T05:15:36.123Z,1.50
2022-07-30T05:16:29.208Z,1.60
2022-07-30T05:17:28.357Z,1.60
2022-07-30T05:18:28.584Z,1.50
2022-07-30T05:19:28.762Z,1.50
2022-07-30T05:20:28.944Z,1.50
2022-07-30T05:21:29.187Z,1.60
2022-07-30T05:22:29.344Z,1.40
2022-07-30T05:23:29.524Z,1.50
2022-07-30T05:24:29.691Z,1.50
2022-07-30T05:25:29.873Z,1.40
2022-07-30T05:26:30.068Z,1.50
2022-07-30T05:27:30.249Z,1.50
2022-07-30T05:28:30.432Z,1.50
2022-07-30T05:29:30.603Z,1.60
2022-07-30T05:30:30.785Z,1.50
2022-07-30T05:31:31.213Z,1.40
2022-07-30T05:32:31.180Z,1.60
2022-07-30T05:33:41.069Z,1.50
2022-07-30T05:34:32.541Z,1.70
2022-07-30T05:35:31.713Z,1.40
2022-07-30T05:36:31.884Z,1.50
2022-07-30T05:37:32.073Z,1.40
2022-07-30T05:38:32.245Z,1.50
2022-07-30T05:39:32.434Z,1.70
2022-07-30T05:40:32.542Z,1.50
2022-07-30T05:41:33.411Z,1.50
2022-07-30T05:42:32.854Z,1.50
2022-07-30T05:43:33.081Z,1.40
2022-07-30T05:44:33.131Z,1.50
2022-07-30T05:45:33.308Z,1.60
2022-07-30T05:46:33.541Z,1.50
2022-07-30T05:47:33.610Z,1.40
2022-07-30T05:48:33.767Z,1.40
2022-07-30T05:49:33.928Z,1.40
2022-07-30T05:50:34.087Z,1.30
2022-07-30T05:51:34.262Z,1.50
2022-07-30T05:52:34.418Z,1.50
2022-07-30T05:53:34.604Z,1.30
2022-07-30T05:54:34.803Z,1.60
2022-07-30T05:55:35.482Z,1.30
2022-07-30T05:56:35.112Z,1.40
2022-07-30T05:57:35.282Z,1.50
2022-07-30T05:58:35.439Z,1.50
2022-07-30T05:59:35.600Z,1.50
2022-07-30T06:00:35.756Z,1.40
2022-07-30T06:01:35.993Z,1.40
2022-07-30T06:02:36.026Z,1.50
2022-07-30T06:03:36.210Z,1.60
2022-07-30T06:04:36.411Z,1.40
2022-07-30T06:05:36.519Z,1.50
2022-07-30T06:06:36.691Z,1.30
2022-07-30T06:07:36.850Z,1.40
2022-07-30T06:08:37.012Z,1.50
2022-07-30T06:09:37.458Z,1.60
2022-07-30T06:10:37.372Z,1.80
2022-07-30T06:11:37.549Z,1.50
2022-07-30T06:12:37.701Z,1.50
2022-07-30T06:13:37.861Z,1.60
2022-07-30T06:14:38.015Z,1.60
2022-07-30T06:15:38.229Z,1.70
2022-07-30T06:16:38.299Z,1.80
2022-07-30T06:17:41.315Z,1.70
2022-07-30T06:18:38.743Z,1.60
2022-07-30T06:19:38.761Z,1.70
2022-07-30T06:20:38.919Z,1.60
2022-07-30T06:22:05.725Z,1.40
2022-07-30T06:22:40.200Z,1.50
2022-07-30T06:23:39.358Z,1.70
2022-07-30T06:24:39.503Z,1.50
2022-07-30T06:25:39.990Z,1.50
2022-07-30T06:26:39.891Z,2.00
2022-07-30T06:27:40.048Z,1.60
2022-07-30T06:28:40.213Z,1.50
2022-07-30T06:29:40.357Z,1.40
2022-07-30T06:30:40.594Z,1.50
2022-07-30T06:31:40.675Z,1.60
2022-07-30T06:32:40.832Z,1.80
2022-07-30T06:33:40.993Z,1.30
2022-07-30T06:34:41.151Z,1.40
2022-07-30T06:35:41.308Z,1.60
2022-07-30T06:36:41.512Z,1.30
2022-07-30T06:38:05.665Z,1.40
2022-07-30T06:38:42.765Z,1.40
2022-07-30T06:39:56.728Z,1.50
2022-07-30T06:40:43.036Z,1.60
2022-07-30T06:41:42.200Z,1.30
2022-07-30T06:42:42.351Z,1.40
2022-07-30T06:43:42.510Z,1.60
2022-07-30T06:44:42.670Z,1.40
2022-07-30T06:45:42.833Z,1.40
2022-07-30T06:46:43.029Z,1.30
2022-07-30T06:47:43.121Z,1.50
2022-07-30T06:48:43.352Z,1.70
2022-07-30T06:49:43.438Z,1.30
2022-07-30T06:50:43.589Z,1.40
2022-07-30T06:51:43.750Z,1.60
2022-07-30T06:52:43.901Z,1.40
2022-07-30T06:53:44.045Z,1.50
2022-07-30T06:54:44.188Z,1.60
2022-07-30T06:55:44.340Z,1.20
2022-07-30T06:56:44.505Z,1.50
2022-07-30T06:57:44.659Z,1.50
2022-07-30T06:58:44.806Z,1.40
2022-07-30T06:59:56.747Z,1.60
2022-07-30T07:00:46.066Z,1.50
2022-07-30T07:01:45.248Z,1.50
2022-07-30T07:02:45.310Z,1.50
2022-07-30T07:03:45.454Z,1.40
2022-07-30T07:04:45.663Z,1.40
2022-07-30T07:05:45.804Z,1.80
2022-07-30T07:06:46.950Z,1.70
2022-07-30T07:07:56.464Z,1.70
2022-07-30T07:08:47.198Z,1.80
2022-07-30T07:09:46.334Z,1.80
2022-07-30T07:10:46.482Z,1.50
2022-07-30T07:11:46.638Z,1.60
2022-07-30T07:12:46.788Z,1.50
2022-07-30T07:13:46.939Z,2.20
2022-07-30T07:14:47.087Z,2.20
2022-07-30T07:15:47.232Z,1.70
2022-07-30T07:16:48.999Z,1.60
2022-07-30T07:17:47.564Z,1.70
2022-07-30T07:18:47.698Z,1.90
2022-07-30T07:20:00.315Z,1.70
2022-07-30T07:20:48.955Z,1.60
2022-07-30T07:21:48.119Z,1.60
2022-07-30T07:22:48.309Z,1.50
2022-07-30T07:23:48.371Z,1.60
2022-07-30T07:24:48.640Z,1.60
2022-07-30T07:25:48.680Z,1.70
2022-07-30T07:26:48.850Z,1.50
2022-07-30T07:28:12.893Z,1.80
2022-07-30T07:28:50.114Z,1.60
2022-07-30T07:30:05.156Z,1.50
2022-07-30T07:30:50.439Z,1.40
2022-07-30T07:32:05.242Z,1.90
2022-07-30T07:32:50.630Z,2.90
2022-07-30T07:33:49.767Z,2.40
2022-07-30T07:34:49.922Z,2.70
2022-07-30T07:35:50.423Z,1.80
2022-07-30T07:36:51.219Z,1.90
2022-07-30T07:37:50.296Z,1.80
2022-07-30T07:38:50.438Z,1.50
2022-07-30T07:39:50.588Z,1.50
2022-07-30T07:40:50.736Z,1.40
2022-07-30T07:41:50.931Z,1.40
2022-07-30T07:42:51.073Z,1.70
2022-07-30T07:43:51.235Z,1.60
2022-07-30T07:44:51.396Z,1.70
2022-07-30T07:45:51.619Z,1.50
2022-07-30T07:46:51.687Z,1.60
2022-07-30T07:47:53.433Z,1.50
2022-07-30T07:48:52.053Z,1.90
2022-07-30T07:49:52.074Z,1.50
2022-07-30T07:50:54.943Z,1.40
2022-07-30T07:51:52.402Z,1.60
2022-07-30T07:52:52.558Z,1.60
2022-07-30T07:54:19.787Z,1.70
2022-07-30T07:54:53.802Z,1.60
2022-07-30T07:55:52.942Z,1.80
2022-07-30T07:56:53.483Z,1.70
2022-07-30T07:57:53.200Z,1.60
2022-07-30T07:58:56.588Z,1.60
2022-07-30T07:59:53.524Z,1.60
2022-07-30T08:00:53.716Z,1.50
2022-07-30T08:01:53.846Z,1.50
2022-07-30T08:02:54.087Z,1.60
2022-07-30T08:03:54.136Z,1.70
2022-07-30T08:04:54.283Z,1.90
2022-07-30T08:06:04.706Z,1.60
2022-07-30T08:06:55.550Z,1.70
2022-07-30T08:07:54.686Z,1.80
2022-07-30T08:08:54.824Z,1.60
2022-07-30T08:09:54.959Z,1.60
2022-07-30T08:10:55.100Z,1.90
2022-07-30T08:11:55.270Z,1.70
2022-07-30T08:12:55.417Z,1.60
2022-07-30T08:13:55.587Z,1.60
2022-07-30T08:14:55.706Z,1.70
2022-07-30T08:15:55.847Z,1.50
2022-07-30T08:16:56.014Z,1.60
2022-07-30T08:17:56.139Z,1.60
2022-07-30T08:18:56.292Z,1.60
2022-07-30T08:19:56.433Z,1.40
2022-07-30T08:20:56.559Z,1.80
2022-07-30T08:21:56.689Z,2.90
2022-07-30T08:22:56.832Z,2.60
2022-07-30T08:23:56.931Z,2.70
2022-07-30T08:24:57.077Z,2.20
2022-07-30T08:25:57.199Z,2.30
2022-07-30T08:26:57.323Z,1.70
2022-07-30T08:27:57.468Z,1.80
2022-07-30T08:28:57.580Z,1.70
2022-07-30T08:29:57.708Z,1.70
2022-07-30T08:31:00.543Z,1.60
2022-07-30T08:31:57.978Z,1.80
2022-07-30T08:32:58.125Z,2.10
2022-07-30T08:33:58.245Z,1.90
2022-07-30T08:34:58.367Z,1.70
2022-07-30T08:36:02.829Z,1.70
2022-07-30T08:36:59.565Z,1.70
2022-07-30T08:37:58.699Z,1.60
2022-07-30T08:38:58.831Z,1.90
2022-07-30T08:39:58.946Z,1.60
2022-07-30T08:40:59.061Z,2.00
2022-07-30T08:41:59.438Z,1.50
2022-07-30T08:42:59.290Z,1.70
2022-07-30T08:43:59.412Z,1.60
2022-07-30T08:44:59.539Z,1.70
2022-07-30T08:45:59.667Z,1.70
2022-07-30T08:47:00.125Z,1.70
2022-07-30T08:47:59.876Z,1.80
2022-07-30T08:49:07.738Z,1.80
2022-07-30T08:50:01.069Z,1.90
2022-07-30T08:51:00.192Z,1.90
2022-07-30T08:52:00.642Z,1.60
2022-07-30T08:53:00.394Z,1.80
2022-07-30T08:54:00.491Z,1.70
2022-07-30T08:55:00.593Z,1.60
2022-07-30T08:56:00.686Z,1.60
2022-07-30T08:57:00.785Z,1.80
2022-07-30T08:58:00.982Z,1.90
2022-07-30T08:59:01.046Z,1.80
2022-07-30T09:00:02.042Z,1.70
2022-07-30T09:01:01.254Z,1.60
2022-07-30T09:02:01.523Z,1.80
2022-07-30T09:03:01.394Z,1.80
2022-07-30T09:04:01.558Z,1.90
2022-07-30T09:05:01.576Z,1.90
2022-07-30T09:06:01.669Z,1.70
2022-07-30T09:07:01.989Z,1.60
2022-07-30T09:08:03.219Z,2.10
2022-07-30T09:09:01.919Z,2.30
2022-07-30T09:10:02.005Z,2.20
2022-07-30T09:11:02.085Z,1.60
2022-07-30T09:12:02.184Z,1.90
2022-07-30T09:13:02.212Z,2.20
2022-07-30T09:14:04.817Z,1.70
2022-07-30T09:15:02.367Z,1.90
2022-07-30T09:16:02.453Z,2.10
2022-07-30T09:17:02.732Z,2.50
2022-07-30T09:18:02.684Z,2.60
2022-07-30T09:19:02.774Z,3.00
2022-07-30T09:20:02.878Z,2.00
2022-07-30T09:21:02.972Z,1.90
2022-07-30T09:22:03.052Z,1.70
2022-07-30T09:23:10.160Z,2.00
2022-07-30T09:24:03.238Z,1.80
2022-07-30T09:25:03.317Z,1.90
2022-07-30T09:26:03.409Z,1.80
2022-07-30T09:27:03.853Z,1.90
2022-07-30T09:28:03.604Z,2.40
2022-07-30T09:29:04.639Z,1.80
2022-07-30T09:30:03.734Z,1.90
2022-07-30T09:31:03.827Z,2.00
2022-07-30T09:32:04.229Z,1.70
2022-07-30T09:33:04.021Z,1.80
2022-07-30T09:34:04.111Z,1.90
2022-07-30T09:35:06.297Z,1.90
2022-07-30T09:36:04.218Z,1.80
2022-07-30T09:37:04.320Z,1.70
2022-07-30T09:38:06.533Z,1.90
2022-07-30T09:39:04.522Z,1.90
2022-07-30T09:40:04.622Z,1.80
2022-07-30T09:41:12.217Z,1.70
2022-07-30T09:42:05.894Z,2.30
2022-07-30T09:43:04.865Z,1.80
2022-07-30T09:44:04.963Z,1.80
2022-07-30T09:45:05.040Z,1.90
2022-07-30T09:46:05.125Z,2.00
2022-07-30T09:47:05.201Z,2.00
2022-07-30T09:48:05.277Z,2.00
2022-07-30T09:49:05.387Z,1.90
2022-07-30T09:50:07.253Z,2.00
2022-07-30T09:51:05.523Z,1.70
2022-07-30T09:52:06.686Z,2.10
2022-07-30T09:53:05.629Z,1.60
2022-07-30T09:54:05.723Z,1.80
2022-07-30T09:55:05.736Z,1.90
2022-07-30T09:56:05.806Z,1.90
2022-07-30T09:57:05.863Z,1.70
2022-07-30T09:58:06.875Z,1.70
2022-07-30T09:59:05.959Z,1.60
2022-07-30T10:00:06.992Z,1.80
2022-07-30T10:01:06.054Z,1.70
2022-07-30T10:02:09.965Z,1.80
2022-07-30T10:03:12.285Z,1.70
2022-07-30T10:04:07.159Z,1.80
2022-07-30T10:05:06.209Z,1.70
2022-07-30T10:06:06.277Z,1.70
2022-07-30T10:07:06.852Z,2.50
2022-07-30T10:08:09.402Z,1.70
2022-07-30T10:09:15.437Z,1.60
2022-07-30T10:10:07.437Z,1.50
2022-07-30T10:11:09.720Z,1.50
2022-07-30T10:12:10.479Z,1.50
2022-07-30T10:13:06.418Z,1.60
2022-07-30T10:14:06.392Z,1.50
2022-07-30T10:15:07.292Z,1.40
2022-07-30T10:16:06.473Z,2.30
2022-07-30T10:17:06.502Z,1.80
2022-07-30T10:18:06.770Z,1.40
2022-07-30T10:19:07.172Z,1.30
2022-07-30T10:20:08.337Z,1.60
2022-07-30T10:21:06.511Z,1.40
2022-07-30T10:22:06.511Z,1.50
2022-07-30T10:23:08.099Z,1.40
2022-07-30T10:24:06.853Z,1.40
2022-07-30T10:25:06.527Z,1.70
2022-07-30T10:26:06.546Z,1.90
2022-07-30T10:27:06.914Z,1.90
2022-07-30T10:28:06.563Z,2.00
2022-07-30T10:29:06.619Z,1.50
2022-07-30T10:30:06.639Z,1.60
2022-07-30T10:31:46.636Z,1.50
2022-07-30T10:32:07.673Z,1.40
2022-07-30T10:33:06.680Z,1.40
2022-07-30T10:34:06.733Z,1.40
2022-07-30T10:35:06.715Z,1.40
2022-07-30T10:36:09.026Z,1.20
2022-07-30T10:37:07.493Z,1.50
2022-07-30T10:38:06.782Z,1.20
2022-07-30T10:39:06.823Z,1.40
2022-07-30T10:40:06.896Z,1.40
2022-07-30T10:41:06.942Z,1.40
2022-07-30T10:42:06.982Z,1.50
2022-07-30T10:43:07.024Z,1.40
2022-07-30T10:44:07.038Z,1.60
2022-07-30T10:45:07.075Z,1.50
2022-07-30T10:46:07.460Z,1.90
2022-07-30T10:47:09.241Z,1.60
2022-07-30T10:48:07.203Z,1.40
2022-07-30T10:49:07.283Z,1.50
2022-07-30T10:50:11.732Z,1.60
2022-07-30T10:51:07.275Z,1.40
2022-07-30T10:52:07.334Z,1.40
2022-07-30T10:53:07.371Z,1.40
2022-07-30T10:54:07.403Z,1.20
2022-07-30T10:55:07.369Z,1.40
2022-07-30T10:56:07.415Z,1.40
2022-07-30T10:57:07.460Z,1.30
2022-07-30T10:58:07.726Z,1.40
2022-07-30T10:59:07.932Z,1.40
2022-07-30T11:00:07.531Z,1.50
2022-07-30T11:01:18.354Z,1.40
2022-07-30T11:02:08.552Z,2.70
2022-07-30T11:03:14.844Z,1.60
2022-07-30T11:04:08.558Z,1.40
2022-07-30T11:05:07.574Z,1.50
2022-07-30T11:06:07.646Z,1.30
2022-07-30T11:07:07.666Z,1.40
2022-07-30T11:08:07.701Z,1.60
2022-07-30T11:09:07.706Z,1.60
2022-07-30T11:10:09.371Z,1.50
2022-07-30T11:11:19.485Z,1.30
2022-07-30T11:12:08.696Z,1.20
2022-07-30T11:13:07.728Z,1.30
2022-07-30T11:14:07.749Z,1.30
2022-07-30T11:15:18.695Z,1.30
2022-07-30T11:16:08.746Z,1.30
2022-07-30T11:17:07.739Z,1.10
2022-07-30T11:18:13.013Z,1.20
2022-07-30T11:20:11.726Z,1.10
2022-07-30T11:21:07.729Z,1.10
2022-07-30T11:22:08.718Z,1.20
2022-07-30T11:23:07.659Z,1.00
2022-07-30T11:24:07.668Z,1.20
2022-07-30T11:25:13.241Z,1.30
2022-07-30T11:26:14.246Z,1.20
2022-07-30T11:27:08.902Z,1.30
2022-07-30T11:28:07.537Z,1.10
2022-07-30T11:29:07.590Z,1.10
2022-07-30T11:30:07.600Z,1.10
2022-07-30T11:31:10.481Z,1.10
2022-07-30T11:32:07.830Z,1.00
2022-07-30T11:33:07.610Z,1.10
2022-07-30T11:34:07.632Z,1.00
2022-07-30T11:35:07.624Z,1.10
2022-07-30T11:36:07.620Z,1.10
2022-07-30T11:37:21.932Z,1.10
2022-07-30T11:38:08.599Z,0.90
2022-07-30T11:39:07.711Z,1.10
2022-07-30T11:40:07.590Z,1.10
2022-07-30T11:41:07.579Z,1.00
2022-07-30T11:42:07.607Z,1.20
2022-07-30T11:43:07.619Z,1.40
2022-07-30T11:44:07.630Z,1.10
2022-07-30T11:45:07.641Z,1.30
2022-07-30T11:46:07.654Z,1.10
2022-07-30T11:47:07.621Z,1.30
2022-07-30T11:48:07.651Z,1.10
2022-07-30T11:49:07.695Z,1.00
2022-07-30T11:50:07.637Z,0.90
2022-07-30T11:51:07.644Z,1.00
2022-07-30T11:52:07.679Z,1.10
2022-07-30T11:53:07.709Z,1.10
2022-07-30T11:54:07.725Z,1.00
2022-07-30T11:55:07.742Z,1.10
2022-07-30T11:56:07.789Z,1.00
2022-07-30T11:57:07.716Z,1.40
2022-07-30T11:58:07.768Z,0.80
2022-07-30T11:59:07.799Z,1.00
2022-07-30T12:00:07.808Z,1.00
2022-07-30T12:01:09.214Z,1.00
2022-07-30T12:02:07.809Z,1.00
2022-07-30T12:03:07.839Z,1.10
2022-07-30T12:04:07.856Z,1.10
2022-07-30T12:05:07.869Z,1.00
2022-07-30T12:06:07.883Z,1.00
2022-07-30T12:07:07.894Z,1.00
2022-07-30T12:08:07.937Z,1.00
2022-07-30T12:09:07.954Z,1.00
2022-07-30T12:10:08.034Z,1.10
2022-07-30T12:11:08.066Z,1.00
2022-07-30T12:12:08.126Z,1.00
2022-07-30T12:13:08.183Z,1.10
2022-07-30T12:14:08.083Z,1.00
2022-07-30T12:15:08.119Z,0.90
2022-07-30T12:16:08.157Z,1.00
2022-07-30T12:17:15.383Z,1.20
2022-07-30T12:18:25.800Z,1.20
2022-07-30T12:19:09.655Z,1.20
2022-07-30T12:20:08.179Z,0.90
2022-07-30T12:21:08.221Z,1.00
2022-07-30T12:22:08.261Z,1.10
2022-07-30T12:23:08.296Z,1.00
2022-07-30T12:24:08.338Z,0.90
2022-07-30T12:25:08.374Z,1.10
2022-07-30T12:26:08.421Z,1.00
2022-07-30T12:27:08.493Z,1.20
2022-07-30T12:28:08.567Z,0.90
2022-07-30T12:29:08.615Z,1.00
2022-07-30T12:30:08.658Z,1.10
2022-07-30T12:31:08.703Z,1.10
2022-07-30T12:32:08.768Z,1.10
2022-07-30T12:33:08.805Z,1.10
2022-07-30T12:34:08.862Z,1.40
2022-07-30T12:35:08.900Z,1.00
2022-07-30T12:36:08.937Z,1.10
2022-07-30T12:37:08.974Z,1.10
2022-07-30T12:38:09.011Z,1.10
2022-07-30T12:39:09.057Z,1.10
2022-07-30T12:40:14.336Z,1.00
2022-07-30T12:41:10.079Z,1.00
2022-07-30T12:42:09.138Z,1.10
2022-07-30T12:43:13.783Z,1.00
2022-07-30T12:44:09.189Z,1.20
2022-07-30T12:45:09.208Z,1.10
2022-07-30T12:46:14.528Z,1.00
2022-07-30T12:47:10.225Z,1.00
2022-07-30T12:48:09.278Z,1.20
2022-07-30T12:49:21.467Z,1.10
2022-07-30T12:50:10.345Z,1.10
2022-07-30T12:51:09.292Z,1.20
2022-07-30T12:52:13.293Z,1.10
2022-07-30T12:53:09.323Z,1.20
2022-07-30T12:54:09.367Z,1.10
2022-07-30T12:55:09.403Z,1.00
2022-07-30T12:56:09.468Z,1.00
2022-07-30T12:57:09.402Z,1.10
2022-07-30T12:58:09.419Z,1.00
2022-07-30T12:59:09.473Z,0.90
2022-07-30T13:00:09.519Z,1.00
2022-07-30T13:01:09.469Z,1.20
2022-07-30T13:02:09.478Z,0.90
2022-07-30T13:03:09.490Z,1.10
2022-07-30T13:04:09.521Z,1.20
2022-07-30T13:05:10.653Z,1.30
2022-07-30T13:06:09.498Z,1.10
2022-07-30T13:07:09.498Z,1.10
2022-07-30T13:08:09.520Z,1.30
2022-07-30T13:09:09.557Z,1.20
2022-07-30T13:10:09.600Z,1.00
2022-07-30T13:11:09.600Z,1.20
2022-07-30T13:12:09.619Z,1.00
2022-07-30T13:13:09.646Z,1.00
2022-07-30T13:14:09.687Z,1.10
2022-07-30T13:15:09.709Z,1.00
2022-07-30T13:16:09.736Z,1.10
2022-07-30T13:17:09.776Z,1.10
2022-07-30T13:18:09.801Z,1.10
2022-07-30T13:19:09.838Z,1.10
2022-07-30T13:20:09.857Z,1.00
2022-07-30T13:21:09.875Z,1.20